Pagina principală
METAR-TAF:

METAR-TAF

Aeroporturi :

Phillip Goldston

Belize City, Belize

Latitudine: 17-32N, longitudine: 088-18W, elevație: 5 m

Observații meteo curente

Raportul a fost făcut în urmă cu 1 oră și 49 de minute, la 00:00 UTC
Vânt 9 kt de la Est
Temperatură 30°C
Umiditate 79%
Presiune 1009 hPa
Vizibilitate de 10 km sau mai mult
Nori împrăștiați la o înălțime de 2000 picior

METAR: MZBZ 220000Z 09009KT 9999 SCT020 30/26 A2979 Q1009 NOSIG

Ora: 19:49 (01:49 UTC)

Prognoză

Raportul a fost făcut în urmă cu 3 ore și 4 de minute, la 22:45 UTC
Prognoză valabilă de la 22 ora 00 UTC la 22 ora 24 UTC
Vânt 8 kt de la Est
Vizibilitate de 10 km sau mai mult
Nori împrăștiați la o înălțime de 2300 picior

TAF: MZBZ 212245Z 2200/2224 09008KT 9999 SCT023

Observații și prognoze meteo pentru peste 4.000 de aeroporturi (rapoarte METAR și TAF).

Stațiile disponibile sunt reprezentate pe hartă prin puncte galbene și roșii.

Țineți indicatorul mouse-ului pe punctul dorit pentru a vedea denumirea stației.

Apoi, faceți clic pentru a vedea observațiile și prognozele meteorologice.

Pentru a schimba harta: Pentru mărire, faceți clic pe butoanele verzi cu cruce neagră; pentru micșorare, pe butonul verde cu o liniuță; pentru hărți învecinate, pe săgețile verzi.


METAR-TAF: